Time;durP1;ratioP1;P1;durP2;ratioP2;P2;SDS_P1;SDS_P2;PMS_P1;PMS_P2;Temp;Humidity;BMP_temperature;BMP_pressure;BME280_temperature;BME280_humidity;BME280_pressure;Samples;Min_cycle;Max_cycle;Signal;HPM_P1;HPM_P2
2022/08/23 00:02:07;;;;;;;12.00;7.37;;;;;;;16.96;84.21;96766.17;1702711;84;25720;-75
2022/08/23 00:04:39;;;;;;;11.63;7.28;;;;;;;16.92;84.21;96774.88;1702547;83;25737;-75
2022/08/23 00:07:10;;;;;;;13.45;8.50;;;;;;;16.87;84.27;96776.23;1699178;83;25719;-75
2022/08/23 00:09:37;;;;;;;14.40;8.93;;;;;;;16.87;84.39;96776.23;1702518;84;28210;-75
2022/08/23 00:12:18;;;;;;;9.43;7.53;;;;;;;16.87;84.49;96773.52;1702478;84;25784;-75
2022/08/23 00:14:51;;;;;;;9.25;7.42;;;;;;;16.88;84.51;96779.25;1702960;83;25734;-75
2022/08/23 00:17:18;;;;;;;9.15;7.10;;;;;;;16.88;84.52;96790.15;1700361;82;25856;-75
2022/08/23 00:19:45;;;;;;;8.85;6.90;;;;;;;16.89;84.50;96789.61;1704389;82;25773;-75
2022/08/23 00:22:12;;;;;;;8.78;7.30;;;;;;;16.88;84.48;96792.87;1704337;82;27508;-75
2022/08/23 00:24:39;;;;;;;10.70;7.42;;;;;;;16.85;84.45;96792.03;1704361;84;26362;-75
2022/08/23 00:27:13;;;;;;;9.63;7.17;;;;;;;16.85;84.52;96782.50;1704247;83;26529;-75
2022/08/23 00:29:50;;;;;;;8.58;7.05;;;;;;;16.85;84.52;96785.22;1704298;84;25748;-75
2022/08/23 00:32:27;;;;;;;10.95;7.67;;;;;;;16.88;84.59;96791.52;1742343;81;25858;-75
2022/08/23 00:34:55;;;;;;;8.58;7.60;;;;;;;16.87;84.58;96792.59;1742138;81;28119;-75
2022/08/23 00:37:22;;;;;;;10.82;8.03;;;;;;;16.82;84.57;96795.28;1742287;81;25673;-75
2022/08/23 00:39:49;;;;;;;8.75;7.72;;;;;;;16.80;84.59;96802.91;1741961;81;25728;-75
2022/08/23 00:48:14;;;;;;;11.20;7.92;;;;;;;16.78;84.84;96801.02;1579523;90;27572;-75
2022/08/23 00:50:51;;;;;;;11.93;7.90;;;;;;;16.73;84.86;96802.34;1579465;90;25829;-75
2022/08/23 00:53:23;;;;;;;11.08;8.15;;;;;;;16.70;84.90;96805.58;1579069;90;25846;-75
2022/08/23 00:55:54;;;;;;;10.90;8.13;;;;;;;16.67;84.92;96807.47;1514759;94;25870;-75
2022/08/23 00:58:22;;;;;;;12.80;9.38;;;;;;;16.68;84.93;96809.11;1514612;94;25854;-75
2022/08/23 01:00:52;;;;;;;17.42;9.03;;;;;;;16.68;84.92;96805.02;1514576;94;27403;-75
2022/08/23 01:03:21;;;;;;;11.50;7.67;;;;;;;16.69;84.90;96803.94;1514509;94;25834;-75
2022/08/23 01:06:04;;;;;;;9.63;7.70;;;;;;;16.71;84.86;96800.95;1514396;94;26043;-75
2022/08/23 01:08:33;;;;;;;12.07;8.43;;;;;;;16.72;84.84;96799.33;1512483;94;25766;-75
2022/08/23 01:11:14;;;;;;;12.20;8.33;;;;;;;16.72;84.86;96800.69;1514457;94;25894;-75
2022/08/23 01:13:57;;;;;;;13.08;8.55;;;;;;;16.70;84.79;96800.13;1511661;94;27469;-74
2022/08/23 01:16:35;;;;;;;13.05;8.10;;;;;;;16.69;84.78;96808.02;1512943;94;25909;-75
2022/08/23 01:19:07;;;;;;;11.25;7.97;;;;;;;16.70;84.80;96802.03;1513589;94;25894;-75
2022/08/23 01:21:48;;;;;;;11.48;7.35;;;;;;;16.69;84.83;96797.13;1513679;94;26586;-75
2022/08/23 01:24:16;;;;;;;10.82;7.62;;;;;;;16.70;84.89;96800.13;1507194;94;26074;-75
2022/08/23 01:26:43;;;;;;;12.05;8.33;;;;;;;16.70;84.89;96796.58;1500313;95;27417;-75
2022/08/23 01:29:09;;;;;;;10.68;7.87;;;;;;;16.72;84.91;96803.95;1500306;94;25560;-75
2022/08/23 01:31:36;;;;;;;11.45;7.47;;;;;;;16.72;84.90;96800.69;1500407;95;25860;-75
2022/08/23 01:34:07;;;;;;;21.45;8.15;;;;;;;16.74;85.00;96804.52;1500351;95;25797;-75
2022/08/23 01:36:35;;;;;;;9.03;7.60;;;;;;;16.74;85.00;96801.25;1500285;95;26010;-74
2022/08/23 01:39:04;;;;;;;15.65;7.50;;;;;;;16.74;84.96;96805.34;1490661;95;27509;-74
2022/08/23 01:41:31;;;;;;;8.98;7.42;;;;;;;16.73;84.97;96806.42;1478317;97;25875;-74
2022/08/23 01:43:57;;;;;;;11.28;7.90;;;;;;;16.68;84.90;96803.66;1490059;91;25877;-74
2022/08/23 01:46:25;;;;;;;9.63;8.10;;;;;;;16.68;85.06;96802.30;1560264;91;26478;-74
2022/08/23 01:48:57;;;;;;;12.68;9.60;;;;;;;16.69;85.12;96803.94;1560125;91;25829;-75
2022/08/23 01:51:24;;;;;;;9.37;8.20;;;;;;;16.70;85.15;96804.76;1560316;91;27710;-74
2022/08/23 01:53:51;;;;;;;12.60;8.40;;;;;;;16.58;85.17;96785.87;1559746;91;25831;-74
2022/08/23 01:56:19;;;;;;;11.97;9.08;;;;;;;16.71;85.23;96806.41;1560237;91;25846;-75
2022/08/23 01:58:47;;;;;;;12.07;9.23;;;;;;;16.72;85.28;96806.14;1598801;84;25823;-75
2022/08/23 02:01:14;;;;;;;11.45;9.68;;;;;;;16.72;85.27;96809.41;1688043;84;25526;-74
2022/08/23 02:03:41;;;;;;;15.98;10.10;;;;;;;16.72;85.28;96810.23;1688389;84;28246;-75
2022/08/23 02:06:08;;;;;;;12.37;10.03;;;;;;;16.74;85.24;96816.78;1687944;84;25756;-74
2022/08/23 02:11:22;;;;;;;13.80;10.55;;;;;;;16.73;85.18;96815.96;1688275;84;25732;-74
2022/08/23 02:13:51;;;;;;;13.85;9.75;;;;;;;16.72;85.18;96812.95;1688141;84;26437;-75
2022/08/23 02:16:32;;;;;;;13.80;9.40;;;;;;;16.72;85.25;96818.41;1706165;83;27383;-74
2022/08/23 02:19:03;;;;;;;13.90;9.65;;;;;;;16.74;85.28;96813.52;1632066;87;25761;-74
2022/08/23 02:21:30;;;;;;;12.55;9.93;;;;;;;16.73;85.27;96816.50;1592273;89;25767;-74
2022/08/23 02:24:00;;;;;;;13.15;9.15;;;;;;;16.71;85.31;96817.30;1632528;87;26487;-75
2022/08/23 02:26:26;;;;;;;12.15;9.58;;;;;;;16.72;85.34;96817.05;1645929;87;26122;-74
2022/08/23 02:28:53;;;;;;;14.43;10.13;;;;;;;16.73;85.35;96815.96;1646096;87;27355;-74
2022/08/23 02:31:20;;;;;;;11.88;9.43;;;;;;;16.71;85.42;96826.30;1645958;87;25780;-74
2022/08/23 02:33:47;;;;;;;10.82;9.00;;;;;;;16.73;85.45;96828.77;1646116;87;25341;-74
2022/08/23 02:36:15;;;;;;;15.20;9.85;;;;;;;16.73;85.45;96830.95;1646037;87;25837;-74
2022/08/23 02:38:41;;;;;;;12.78;9.18;;;;;;;16.73;85.36;96829.59;1645980;87;25287;-74
2022/08/23 02:41:08;;;;;;;12.68;8.93;;;;;;;16.74;85.41;96820.88;1646098;87;27539;-75
2022/08/23 02:43:36;;;;;;;12.90;9.35;;;;;;;16.76;85.40;96822.25;1645920;87;25735;-75
2022/08/23 02:46:05;;;;;;;17.52;11.12;;;;;;;16.77;85.39;96825.27;1646144;86;25389;-74
2022/08/23 02:48:36;;;;;;;13.40;10.32;;;;;;;16.76;85.36;96824.98;1646007;86;25731;-74
2022/08/23 02:51:06;;;;;;;13.55;10.20;;;;;;;16.75;85.42;96831.52;1645978;87;25571;-74
2022/08/23 02:53:33;;;;;;;13.10;9.83;;;;;;;16.76;85.45;96827.70;1646071;87;27390;-75
2022/08/23 02:56:01;;;;;;;14.07;10.10;;;;;;;16.73;85.43;96825.50;1645690;87;25752;-74
2022/08/23 02:58:28;;;;;;;16.75;10.78;;;;;;;16.74;85.49;96832.59;1645750;87;25848;-75
2022/08/23 03:00:55;;;;;;;20.40;11.65;;;;;;;16.74;85.51;96833.13;1646076;87;26528;-74
2022/08/23 03:03:22;;;;;;;13.93;10.82;;;;;;;16.74;85.56;96831.77;1642480;87;25749;-74
2022/08/23 03:05:49;;;;;;;15.83;10.93;;;;;;;16.75;85.54;96830.15;1632459;87;27503;-74
2022/08/23 03:08:17;;;;;;;15.08;11.22;;;;;;;16.76;85.62;96837.24;1632405;87;25683;-74
2022/08/23 03:10:47;;;;;;;16.45;10.82;;;;;;;16.75;85.67;96837.50;1632290;87;25773;-75
2022/08/23 03:13:15;;;;;;;14.90;11.35;;;;;;;16.76;85.74;96841.88;1632141;87;25821;-74
2022/08/23 03:15:42;;;;;;;16.85;11.73;;;;;;;16.74;85.80;96844.86;1678152;83;25853;-74
2022/08/23 03:18:11;;;;;;;15.88;11.48;;;;;;;16.73;85.80;96840.48;1717232;83;27374;-75
2022/08/23 03:20:42;;;;;;;18.07;10.85;;;;;;;16.72;85.80;96843.47;1718101;83;25652;-74
2022/08/23 03:23:09;;;;;;;16.60;11.68;;;;;;;16.72;85.87;96838.84;1717999;83;25664;-74
2022/08/23 03:25:37;;;;;;;13.50;10.50;;;;;;;16.72;85.91;96844.30;1718069;83;26397;-74
2022/08/23 03:28:05;;;;;;;16.10;11.65;;;;;;;16.72;85.99;96847.02;1718002;83;25660;-74
2022/08/23 03:30:32;;;;;;;16.32;11.83;;;;;;;16.73;85.98;96851.39;1717905;83;27591;-75
2022/08/23 03:33:00;;;;;;;15.85;11.48;;;;;;;16.73;86.02;96851.39;1717936;83;25828;-74
2022/08/23 03:35:27;;;;;;;15.30;11.35;;;;;;;16.72;86.07;96860.64;1718159;83;25743;-75
2022/08/23 03:37:55;;;;;;;14.90;11.12;;;;;;;16.74;86.10;96855.77;1718017;82;25730;-74
2022/08/23 03:40:21;;;;;;;14.38;10.68;;;;;;;16.73;86.04;96852.75;1717823;83;25724;-74
2022/08/23 03:42:49;;;;;;;15.10;10.85;;;;;;;16.70;86.07;96850.55;1717922;83;27349;-74
2022/08/23 03:45:17;;;;;;;17.25;12.07;;;;;;;16.73;86.11;96858.74;1717965;83;25861;-74
2022/08/23 03:47:44;;;;;;;15.40;11.45;;;;;;;16.75;86.09;96861.48;1718168;83;25766;-74
2022/08/23 03:50:12;;;;;;;13.05;10.80;;;;;;;16.78;86.15;96859.61;1717816;83;26506;-74
2022/08/23 03:52:39;;;;;;;15.15;10.72;;;;;;;16.80;86.02;96855.23;1718269;83;25962;-74
2022/08/23 03:55:06;;;;;;;18.65;11.38;;;;;;;16.79;86.06;96859.04;1717858;83;28266;-74
2022/08/23 03:57:33;;;;;;;14.30;11.57;;;;;;;16.82;86.04;96859.88;1717974;83;25691;-74
2022/08/23 03:59:59;;;;;;;16.12;11.30;;;;;;;16.84;85.98;96865.35;1718174;83;25722;-74
2022/08/23 04:02:26;;;;;;;13.95;11.03;;;;;;;16.87;85.88;96867.55;1718231;83;26514;-73
2022/08/23 04:04:53;;;;;;;13.68;10.85;;;;;;;16.87;85.76;96865.38;1718114;83;25715;-73
2022/08/23 04:07:21;;;;;;;15.68;11.90;;;;;;;16.87;85.77;96866.20;1718194;82;28131;-73
2022/08/23 04:09:47;;;;;;;16.40;10.90;;;;;;;16.84;85.73;96861.80;1718103;83;25447;-74
2022/08/23 04:12:14;;;;;;;14.85;11.05;;;;;;;16.83;85.79;96869.70;1717781;83;25264;-74
2022/08/23 04:14:41;;;;;;;15.55;11.45;;;;;;;16.84;85.88;96869.44;1718156;83;25738;-74
2022/08/23 04:17:07;;;;;;;15.18;10.95;;;;;;;16.87;85.92;96866.20;1718136;83;25881;-73
2022/08/23 04:19:34;;;;;;;15.28;11.22;;;;;;;16.89;85.90;96876.30;1718606;83;28217;-73
2022/08/23 04:22:01;;;;;;;16.45;11.63;;;;;;;16.88;85.94;96878.74;1718621;83;25626;-73
2022/08/23 04:24:28;;;;;;;19.77;11.80;;;;;;;16.89;86.03;96874.11;1718592;83;25716;-74
2022/08/23 04:26:55;;;;;;;17.30;11.40;;;;;;;16.90;86.03;96877.13;1718610;83;25688;-73
2022/08/23 04:29:22;;;;;;;17.23;12.30;;;;;;;16.88;85.94;96880.10;1718769;83;25737;-74
2022/08/23 04:31:48;;;;;;;17.10;11.40;;;;;;;16.85;85.91;96882.53;1718743;83;28208;-73
2022/08/23 04:34:15;;;;;;;19.82;11.88;;;;;;;16.82;85.98;96882.50;1718480;83;25815;-73
2022/08/23 04:36:42;;;;;;;17.55;12.00;;;;;;;16.81;86.01;96886.86;1718325;83;25703;-74
2022/08/23 04:39:10;;;;;;;18.95;12.70;;;;;;;16.82;86.06;96892.05;1718607;83;26572;-73
2022/08/23 04:44:22;;;;;;;17.85;12.73;;;;;;;16.84;86.15;96891.25;1718333;83;27590;-73
2022/08/23 04:46:48;;;;;;;15.85;11.15;;;;;;;16.84;86.14;96891.78;1718338;83;25937;-73
2022/08/23 04:49:15;;;;;;;17.90;12.88;;;;;;;16.84;86.14;96891.78;1718583;83;25779;-73
2022/08/23 04:51:42;;;;;;;18.40;13.13;;;;;;;16.82;86.20;96892.05;1718582;83;26703;-74
2022/08/23 04:54:08;;;;;;;17.87;12.47;;;;;;;16.82;86.24;96897.50;1718543;83;25716;-73
2022/08/23 04:56:35;;;;;;;19.15;13.25;;;;;;;16.84;86.23;96894.52;1718618;83;28009;-74
2022/08/23 04:59:03;;;;;;;16.97;12.15;;;;;;;16.84;86.24;96888.52;1718533;82;25471;-73
2022/08/23 05:01:29;;;;;;;16.87;12.13;;;;;;;16.85;86.19;96894.25;1718621;83;25684;-74
2022/08/23 05:03:56;;;;;;;20.23;12.98;;;;;;;16.82;86.20;96898.86;1718693;83;25762;-73
2022/08/23 05:06:24;;;;;;;21.33;13.05;;;;;;;16.80;86.19;96901.02;1718810;83;25324;-74
2022/08/23 05:08:50;;;;;;;17.25;12.85;;;;;;;16.83;86.22;96903.77;1718692;83;28052;-73
2022/08/23 05:11:17;;;;;;;18.65;13.32;;;;;;;16.82;86.33;96909.77;1718487;83;25793;-73
2022/08/23 05:13:44;;;;;;;20.88;13.20;;;;;;;16.83;86.40;96918.22;1718465;83;25752;-73
2022/08/23 05:16:12;;;;;;;19.17;13.00;;;;;;;16.85;86.40;96926.14;1718690;83;25763;-74
2022/08/23 05:18:38;;;;;;;21.35;13.28;;;;;;;16.86;86.32;96929.97;1718573;83;26415;-74
2022/08/23 05:21:07;;;;;;;20.60;12.82;;;;;;;16.88;86.45;96927.81;1718405;83;46367;-74
2022/08/23 05:23:34;;;;;;;17.12;12.85;;;;;;;16.91;86.45;96931.34;1718224;83;25694;-73
2022/08/23 05:26:00;;;;;;;19.17;13.43;;;;;;;16.96;86.45;96933.84;1718671;83;25681;-74
2022/08/23 05:28:31;;;;;;;24.85;14.25;;;;;;;16.99;86.51;96933.32;1718677;83;25691;-73
2022/08/23 05:31:08;;;;;;;16.85;13.05;;;;;;;17.04;86.56;96935.52;1718812;83;25727;-73
2022/08/23 05:33:36;;;;;;;18.60;13.48;;;;;;;17.09;86.55;96932.83;1718570;83;27381;-73
2022/08/23 05:36:05;;;;;;;17.35;13.53;;;;;;;17.16;86.69;96929.86;1718536;83;25759;-73
2022/08/23 05:38:33;;;;;;;19.02;13.20;;;;;;;17.22;86.75;96928.81;1718584;83;25782;-73
2022/08/23 05:41:01;;;;;;;22.27;13.28;;;;;;;17.27;86.77;96927.45;1718397;83;25693;-73
2022/08/23 05:43:28;;;;;;;20.60;14.07;;;;;;;17.29;86.75;96926.11;1718617;83;25281;-74
2022/08/23 05:46:14;;;;;;;18.27;12.47;;;;;;;17.29;86.48;96930.75;1718541;83;28678;-74
2022/08/23 05:48:45;;;;;;;15.28;11.63;;;;;;;17.27;86.42;96931.01;1718583;83;25679;-74
2022/08/23 05:51:25;;;;;;;19.12;13.00;;;;;;;17.29;86.50;96932.93;1718308;83;25676;-74
2022/08/23 05:53:56;;;;;;;20.95;13.38;;;;;;;17.35;86.61;96932.97;1718751;83;25884;-74
2022/08/23 05:56:27;;;;;;;19.73;14.05;;;;;;;17.41;86.63;96931.34;1718772;83;25638;-74
2022/08/23 05:58:58;;;;;;;15.25;11.28;;;;;;;17.48;86.63;96936.03;1718458;83;27428;-74
2022/08/23 06:01:25;;;;;;;18.07;11.28;;;;;;;17.54;86.54;96930.86;1718634;83;25696;-73
2022/08/23 06:03:51;;;;;;;17.15;10.38;;;;;;;17.56;86.27;96932.78;1718312;83;25707;-73
2022/08/23 06:06:19;;;;;;;13.13;11.03;;;;;;;17.61;86.27;96942.91;1718653;83;25658;-74
2022/08/23 06:08:47;;;;;;;14.93;11.12;;;;;;;17.62;86.19;96938.55;1718828;83;25684;-73
2022/08/23 06:11:19;;;;;;;14.73;10.32;;;;;;;17.70;86.27;96944.60;1718583;83;27386;-74
2022/08/23 06:13:50;;;;;;;14.70;10.25;;;;;;;17.76;86.14;96943.52;1584354;89;26640;-73
2022/08/23 06:16:21;;;;;;;17.00;11.80;;;;;;;17.82;86.07;96948.73;1584483;89;25772;-74
2022/08/23 06:18:48;;;;;;;15.10;11.35;;;;;;;17.86;85.82;96949.03;1578564;90;25886;-73
2022/08/23 06:21:16;;;;;;;16.95;11.12;;;;;;;17.88;85.76;96947.65;1561415;90;25894;-74
2022/08/23 06:23:43;;;;;;;13.30;11.73;;;;;;;17.89;85.76;96943.83;1561494;91;27591;-74
2022/08/23 06:26:17;;;;;;;15.35;13.32;;;;;;;17.92;85.85;96947.94;1561020;91;25835;-75
2022/08/23 06:28:50;;;;;;;16.35;11.75;;;;;;;17.91;85.94;96950.39;1544399;92;25883;-75
2022/08/23 06:31:44;;;;;;;14.60;12.50;;;;;;;17.94;86.01;96955.33;1519666;93;26356;-74
2022/08/23 06:33:46;;;;;;;16.87;12.30;;;;;;;18.00;86.12;96950.14;1519695;93;25874;-75
2022/08/23 06:36:13;;;;;;;13.85;11.83;;;;;;;18.02;86.04;96957.52;1519858;93;27489;-74
2022/08/23 06:38:40;;;;;;;15.40;12.10;;;;;;;18.04;85.87;96958.63;1519696;93;25997;-73
2022/08/23 06:41:11;;;;;;;15.15;12.05;;;;;;;18.04;85.79;96960.81;1519630;93;26027;-74
2022/08/23 06:43:38;;;;;;;15.50;11.73;;;;;;;18.09;85.75;96966.30;1519764;93;25809;-75
2022/08/23 06:46:18;;;;;;;16.77;11.05;;;;;;;18.17;85.93;96958.92;1519812;93;25906;-74
2022/08/23 06:48:45;;;;;;;13.25;10.18;;;;;;;18.24;85.81;96960.84;1520000;93;27502;-76
2022/08/23 06:51:16;;;;;;;15.23;11.95;;;;;;;18.25;85.59;96962.48;1519624;93;25719;-74
2022/08/23 06:53:43;;;;;;;15.90;12.33;;;;;;;18.32;85.75;96963.60;1516926;93;25992;-75
2022/08/23 06:56:10;;;;;;;14.03;10.30;;;;;;;18.41;85.83;96963.88;1519761;93;25925;-76
2022/08/23 06:58:37;;;;;;;12.82;9.45;;;;;;;18.46;85.52;96963.89;1519869;93;25821;-74
2022/08/23 07:01:31;;;;;;;13.00;9.63;;;;;;;18.46;85.27;96963.89;1519875;93;27419;-74
2022/08/23 07:04:00;;;;;;;13.08;9.53;;;;;;;18.51;85.28;96963.88;1519520;93;25818;-74
2022/08/23 07:06:28;;;;;;;16.12;11.43;;;;;;;18.57;85.32;96971.00;1519727;93;25825;-75
2022/08/23 07:08:55;;;;;;;10.88;9.73;;;;;;;18.64;85.35;96963.38;1519830;93;25861;-74
2022/08/23 07:11:22;;;;;;;14.10;9.48;;;;;;;18.70;85.09;96963.66;1574839;89;25583;-75
2022/08/23 07:13:49;;;;;;;11.40;9.60;;;;;;;18.78;85.12;96961.73;1614377;88;27404;-74
2022/08/23 07:16:17;;;;;;;11.15;9.15;;;;;;;18.88;85.15;96967.19;1629956;87;25796;-74
2022/08/23 07:18:45;;;;;;;12.20;9.75;;;;;;;18.93;85.07;96967.74;1630017;85;25862;-75
2022/08/23 07:21:12;;;;;;;11.90;9.23;;;;;;;18.94;85.08;96970.20;1630520;87;25761;-74
2022/08/23 07:23:39;;;;;;;12.13;9.25;;;;;;;18.95;85.06;96975.95;1630305;87;25885;-75
2022/08/23 07:26:10;;;;;;;11.75;8.95;;;;;;;19.01;85.20;96970.73;1674863;84;28296;-75
2022/08/23 07:28:38;;;;;;;11.05;8.88;;;;;;;19.10;84.97;96975.09;1694240;84;25644;-74
2022/08/23 07:31:30;;;;;;;16.05;8.95;;;;;;;19.21;84.93;96974.52;1694137;84;25731;-74
2022/08/23 07:34:03;;;;;;;9.40;8.50;;;;;;;19.30;84.56;96978.36;1690501;84;26458;-74
2022/08/23 07:36:32;;;;;;;12.95;8.55;;;;;;;19.40;84.19;96981.88;1664670;86;25825;-76
2022/08/23 07:39:00;;;;;;;8.73;7.83;;;;;;;19.49;84.00;96980.78;1688323;84;28145;-75
2022/08/23 07:41:30;;;;;;;10.48;7.87;;;;;;;19.56;83.83;96979.14;1688021;84;25813;-74
2022/08/23 07:44:00;;;;;;;10.75;7.60;;;;;;;19.55;83.34;96982.42;1688274;84;25313;-74
2022/08/23 07:46:27;;;;;;;10.80;8.15;;;;;;;19.58;83.49;96983.21;1688328;84;26493;-75
2022/08/23 07:48:57;;;;;;;10.15;8.15;;;;;;;19.64;83.47;96982.11;1688348;84;25742;-75
2022/08/23 07:51:25;;;;;;;13.10;8.63;;;;;;;19.71;83.49;96981.25;1688238;84;27389;-75
2022/08/23 07:53:52;;;;;;;11.40;8.83;;;;;;;19.78;83.54;96979.05;1688137;83;25858;-75
2022/08/23 07:56:20;;;;;;;9.88;7.80;;;;;;;19.85;83.45;96990.23;1688088;84;25707;-75
2022/08/23 07:58:47;;;;;;;9.53;7.62;;;;;;;19.91;83.32;96983.66;1688288;84;25794;-75
2022/08/23 08:01:18;;;;;;;9.68;8.20;;;;;;;20.02;83.12;96983.88;1688290;84;25812;-75
2022/08/23 08:03:48;;;;;;;10.80;7.83;;;;;;;20.10;82.77;96990.12;1688471;83;27438;-75
2022/08/23 08:06:20;;;;;;;10.38;7.80;;;;;;;20.12;82.34;96987.92;1688178;83;25922;-75
2022/08/23 08:08:47;;;;;;;11.08;8.63;;;;;;;20.09;82.07;96984.37;1688401;83;25322;-75
2022/08/23 08:11:16;;;;;;;8.45;7.62;;;;;;;20.12;81.98;96986.55;1688140;84;25747;-75
2022/08/23 08:13:45;;;;;;;12.43;8.45;;;;;;;20.14;82.02;96992.58;1688301;84;25811;-75
2022/08/23 08:16:25;;;;;;;11.25;8.55;;;;;;;20.14;81.83;96990.66;1688348;84;26826;-75
2022/08/23 08:18:56;;;;;;;8.65;7.78;;;;;;;20.14;81.79;96989.83;1684898;84;26243;-75
2022/08/23 08:21:23;;;;;;;9.00;8.10;;;;;;;20.14;81.31;96998.05;1689502;84;25747;-76
2022/08/23 08:23:50;;;;;;;12.63;8.90;;;;;;;20.13;81.41;96996.41;1689718;84;25799;-75
2022/08/23 08:26:16;;;;;;;9.10;8.20;;;;;;;20.14;81.39;96998.87;1689770;84;25274;-75
2022/08/23 08:28:44;;;;;;;9.88;7.75;;;;;;;20.18;81.19;97001.84;1688583;84;27364;-75
2022/08/23 08:31:11;;;;;;;9.05;8.15;;;;;;;20.21;80.94;97005.41;1674005;85;25501;-75
2022/08/23 08:33:39;;;;;;;8.43;7.62;;;;;;;20.24;80.78;97007.58;1674026;85;25753;-76
2022/08/23 08:36:07;;;;;;;10.55;8.23;;;;;;;20.27;80.76;97012.51;1674059;85;25693;-75
2022/08/23 08:38:39;;;;;;;8.70;7.80;;;;;;;20.31;80.89;97009.45;1674142;85;25678;-75
2022/08/23 08:41:19;;;;;;;11.63;7.70;;;;;;;20.36;80.64;97015.50;1670684;84;28205;-75
2022/08/23 08:44:27;;;;;;;7.87;7.08;;;;;;;20.39;80.32;97014.39;1668034;85;25247;-75
2022/08/23 08:46:56;;;;;;;10.00;7.87;;;;;;;20.43;79.98;97012.70;1672562;85;25651;-75
2022/08/23 08:49:39;;;;;;;10.23;7.40;;;;;;;20.51;79.93;97015.96;1673918;85;25739;-75
2022/08/23 08:52:27;;;;;;;7.87;7.08;;;;;;;20.57;79.53;97009.32;1673329;85;25677;-76
2022/08/23 08:55:02;;;;;;;8.95;7.22;;;;;;;20.60;79.54;97012.87;1612748;88;27213;-75
2022/08/23 08:57:34;;;;;;;9.03;7.28;;;;;;;20.65;80.04;97017.75;1580515;90;25808;-75
2022/08/23 09:00:06;;;;;;;8.70;7.90;;;;;;;20.70;80.17;97010.05;1580061;90;26455;-75
2022/08/23 09:02:34;;;;;;;8.15;7.35;;;;;;;20.74;80.46;97017.98;1532448;93;26408;-75
2022/08/23 09:05:12;;;;;;;8.83;7.90;;;;;;;20.75;80.02;97013.59;1532154;93;25787;-75
2022/08/23 09:08:10;;;;;;;9.30;7.87;;;;;;;20.73;79.84;97015.80;1532260;92;27478;-75
2022/08/23 09:10:51;;;;;;;8.43;6.97;;;;;;;20.74;80.03;97013.87;1532307;93;25544;-75
2022/08/23 09:13:28;;;;;;;9.00;7.47;;;;;;;20.78;80.01;97017.11;1532276;93;25804;-76
2022/08/23 09:16:32;;;;;;;10.82;8.53;;;;;;;20.88;79.58;97021.73;1532381;93;25826;-75
2022/08/23 09:19:02;;;;;;;8.70;7.45;;;;;;;20.90;79.15;97024.98;1530917;93;25799;-76
2022/08/23 09:21:32;;;;;;;9.88;7.87;;;;;;;21.05;78.92;97022.11;1523984;94;27645;-75
2022/08/23 09:23:59;;;;;;;8.78;7.60;;;;;;;21.05;78.92;97022.11;1524178;94;25687;-75
2022/08/23 09:26:29;;;;;;;8.23;7.33;;;;;;;21.12;78.72;97014.94;1523928;92;25373;-75
2022/08/23 09:29:21;;;;;;;10.55;7.67;;;;;;;21.19;78.55;97023.67;1524261;94;25860;-75
2022/08/23 09:31:53;;;;;;;12.75;9.08;;;;;;;21.25;78.31;97014.86;1491458;95;30849;-75
2022/08/23 09:34:35;;;;;;;;;;;;;;;21.31;78.41;97018.63;1506006;95;27501;-75
2022/08/23 09:37:18;;;;;;;13.58;8.95;;;;;;;21.38;77.76;97016.34;1503774;95;25913;-75
2022/08/23 09:39:50;;;;;;;9.35;8.18;;;;;;;21.45;78.12;97025.62;1503578;95;25839;-74
2022/08/23 09:42:37;;;;;;;9.80;8.23;;;;;;;21.58;78.12;97022.20;1425169;100;26955;-75
2022/08/23 09:45:30;;;;;;;12.75;8.83;;;;;;;21.70;77.94;97019.05;1425172;100;25384;-76
2022/08/23 09:47:57;;;;;;;11.50;8.60;;;;;;;21.79;77.65;97019.48;1411095;101;27433;-75
2022/08/23 09:50:46;;;;;;;10.10;8.13;;;;;;;21.84;77.16;96996.08;1428160;100;25645;-75
2022/08/23 09:53:15;;;;;;;9.40;8.03;;;;;;;21.84;77.16;96996.08;1399473;102;25416;-76
2022/08/23 09:55:51;;;;;;;10.03;9.03;;;;;;;21.90;77.06;96988.02;1402231;102;25922;-74
2022/08/23 09:58:43;;;;;;;9.78;8.78;;;;;;;22.21;76.83;97016.54;1439274;99;25815;-75
2022/08/23 10:01:31;;;;;;;11.00;8.60;;;;;;;22.36;76.94;97014.11;1438383;99;27450;-75
2022/08/23 10:04:13;;;;;;;9.98;8.50;;;;;;;22.69;76.46;97019.98;1439282;99;25830;-76
2022/08/23 10:06:44;;;;;;;17.73;8.67;;;;;;;22.69;76.46;97019.98;1441342;99;25810;-75
2022/08/23 10:09:27;;;;;;;9.73;7.97;;;;;;;22.84;76.26;97025.81;1466754;95;25936;-77
2022/08/23 10:12:00;;;;;;;10.25;7.85;;;;;;;22.91;75.75;97027.64;1484639;95;25931;-76
2022/08/23 10:14:31;;;;;;;10.65;8.55;;;;;;;22.92;75.38;97022.40;1485297;95;27605;-76
2022/08/23 10:17:15;;;;;;;11.80;8.55;;;;;;;22.92;75.07;97023.22;1485321;95;25560;-76
2022/08/23 10:20:12;;;;;;;12.20;7.87;;;;;;;22.94;74.84;97023.71;1496393;94;25876;-76
2022/08/23 10:23:00;;;;;;;9.05;8.15;;;;;;;23.10;74.85;97019.34;1495328;94;26688;-76
2022/08/23 10:25:38;;;;;;;8.60;7.80;;;;;;;23.46;74.87;97023.66;1480217;95;25890;-76
2022/08/23 10:31:36;;;;;;;8.98;8.08;;;;;;;23.60;73.89;97021.79;1479625;96;25843;-75
2022/08/23 10:34:32;;;;;;;9.48;8.05;;;;;;;23.66;73.79;97024.16;1479806;96;25911;-77
2022/08/23 10:37:27;;;;;;;11.18;8.08;;;;;;;23.74;73.54;97021.25;1479982;96;25924;-76
2022/08/23 10:40:02;;;;;;;8.25;7.45;;;;;;;24.03;73.34;97027.26;1546857;91;25805;-76
2022/08/23 10:42:55;;;;;;;8.85;7.55;;;;;;;24.27;73.14;97021.55;1538037;91;28247;-76
2022/08/23 10:45:37;;;;;;;12.05;7.95;;;;;;;24.50;72.68;97021.64;1563436;91;25729;-77
2022/08/23 10:48:31;;;;;;;11.40;7.40;;;;;;;24.74;72.17;97019.42;1538535;93;25789;-75
2022/08/23 10:51:11;;;;;;;9.43;7.67;;;;;;;24.90;72.31;97014.34;1600764;89;25678;-77
2022/08/23 10:53:45;;;;;;;8.68;7.78;;;;;;;24.91;71.38;97021.49;1606976;89;25909;-77
2022/08/23 10:56:19;;;;;;;9.00;7.33;;;;;;;24.86;71.23;97022.45;1605802;89;27457;-76
2022/08/23 10:59:15;;;;;;;8.88;7.87;;;;;;;24.88;70.96;97020.73;1640147;87;25477;-76
2022/08/23 11:02:30;;;;;;;8.10;7.30;;;;;;;24.98;70.68;97023.30;1577265;89;25854;-74
2022/08/23 11:05:11;;;;;;;8.85;7.17;;;;;;;25.16;70.37;97026.42;1556065;91;25923;-75
2022/08/23 11:07:42;;;;;;;9.35;7.53;;;;;;;25.28;70.30;97022.53;1470820;97;26469;-74
2022/08/23 11:10:16;;;;;;;10.08;7.37;;;;;;;25.41;69.84;97024.41;1460543;96;27445;-74
2022/08/23 11:12:59;;;;;;;7.65;6.95;;;;;;;25.42;69.17;97029.37;1460434;97;25923;-76
2022/08/23 11:15:42;;;;;;;7.83;7.08;;;;;;;25.28;69.41;97025.30;1430435;98;26430;-76
2022/08/23 11:18:30;;;;;;;8.63;7.20;;;;;;;25.20;69.04;97030.20;1428005;100;25856;-75
2022/08/23 11:21:05;;;;;;;7.28;6.67;;;;;;;25.10;69.07;97029.08;1443468;99;25843;-74
2022/08/23 11:23:46;;;;;;;9.15;6.95;;;;;;;25.04;68.84;97026.17;1449808;98;27649;-75
2022/08/23 11:26:35;;;;;;;8.08;7.22;;;;;;;25.06;69.19;97029.45;1449621;98;25888;-75
2022/08/23 11:29:26;;;;;;;8.28;7.17;;;;;;;25.05;69.72;97027.25;1449769;97;25806;-75
2022/08/23 11:32:18;;;;;;;8.60;6.87;;;;;;;25.00;69.73;97023.78;1449597;98;26636;-74
2022/08/23 11:35:07;;;;;;;8.30;7.10;;;;;;;25.00;69.23;97026.55;1448591;98;25805;-75
2022/08/23 11:37:57;;;;;;;8.65;7.35;;;;;;;24.99;69.04;97029.90;1435672;99;28484;-76
2022/08/23 11:40:51;;;;;;;8.25;7.42;;;;;;;24.89;68.51;97030.65;1436636;99;25921;-75
2022/08/23 11:43:31;;;;;;;7.67;6.70;;;;;;;24.61;69.02;97029.37;1461727;98;25861;-75
2022/08/23 11:46:30;;;;;;;10.90;6.95;;;;;;;24.58;68.88;97035.51;1477234;96;26518;-75
2022/08/23 11:49:30;;;;;;;11.08;7.10;;;;;;;24.59;69.51;97039.91;1480175;96;25806;-74
2022/08/23 11:52:30;;;;;;;7.70;6.97;;;;;;;24.74;69.43;97034.05;1488907;95;27514;-75
2022/08/23 11:55:22;;;;;;;8.33;7.53;;;;;;;24.80;69.08;97031.97;1497419;95;26249;-75
2022/08/23 11:58:18;;;;;;;9.48;7.65;;;;;;;24.84;68.98;97034.36;1477010;97;25898;-75
2022/08/23 12:01:08;;;;;;;8.03;6.85;;;;;;;24.82;68.58;97035.23;1490931;95;26576;-75
2022/08/23 12:04:04;;;;;;;8.10;7.17;;;;;;;24.85;68.57;97037.94;1449427;97;25914;-75
2022/08/23 12:06:48;;;;;;;8.38;7.33;;;;;;;24.63;68.80;97031.83;1424488;100;28348;-75